Osage, Texas
Current Conditions -  °F | °C
As of 9:35 PM on Wednesday 22 Oct 2014 (Local Time) from K66R Reporting Station
Clear Clear  
Wind Chill: 69°   Ceiling: Unl
Heat Index: 69°   Visibility: 10mi
Dew Point: 59°   Wind: 3mph
Humidity: 71%   Direction: 80°E
Pressure: 30.08"   Gusts: NA
Location:  29.6229°N, 96.7031°W
Report Text: K66R 230235Z AUTO 08003KT 10SM CLR 21/15 A3008 RMK AO2 T02050150
Loading
Personal Weather Stations






























Interactive Weather Map
Tropical Storm Tracking
New forecast layout! Learn more

10-Day Weather Forecast

Advertisements
Track Severe Weather on mobile